| time (UTC) | temp F | wind direction | speed knots | gust knots | rain 1hr in | rain 24hr in | rain mn in | humidity % | barometer mb |
| 20260906224111 | 99 | 103 | 3.5 | 7.0 | 0.00 | 0.00 | 0.00 | 44 | 1007.9 |
| 20260906223607 | 99 | 142 | 1.7 | 1.7 | 0.00 | 0.00 | 0.00 | 43 | 1008.0 |
| 20260906223106 | 100 | 99 | 5.2 | 7.8 | 0.00 | 0.00 | 0.00 | 42 | 1007.9 |
| 20260906222605 | 99 | 123 | 1.7 | 2.6 | 0.00 | 0.00 | 0.00 | 43 | 1008.1 |
| 20260906222103 | 98 | 143 | 0.0 | 0.9 | 0.00 | 0.00 | 0.00 | 43 | 1007.8 |
| 20260906221601 | 99 | 144 | 1.7 | 4.3 | 0.00 | 0.00 | 0.00 | 43 | 1008.2 |
| 20260906221057 | 99 | 158 | 0.0 | 0.9 | 0.00 | 0.00 | 0.00 | 43 | 1008.3 |
| 20260906220552 | 99 | 272 | 0.0 | 0.0 | 0.00 | 0.00 | 0.00 | 43 | 1007.9 |
| 20260906220048 | 99 | 96 | 0.9 | 2.6 | 0.00 | 0.00 | 0.00 | 43 | 1008.2 |
| 20260906215547 | 100 | 179 | 2.6 | 2.6 | 0.00 | 0.00 | 0.00 | 43 | 1008.1 |
| 20260906215045 | 101 | 157 | 1.7 | 2.6 | 0.00 | 0.00 | 0.00 | 42 | 1008.1 |
| 20260906214544 | 100 | 263 | 0.0 | 0.0 | 0.00 | 0.00 | 0.00 | 45 | 1008.1 |
| 20260906214039 | 100 | 166 | 2.6 | 5.2 | 0.00 | 0.00 | 0.00 | 42 | 1008.0 |
| 20260906213538 | 101 | 97 | 1.7 | 1.7 | 0.00 | 0.00 | 0.00 | 42 | 1008.0 |
| 20260906213033 | 100 | 282 | 0.0 | 0.0 | 0.00 | 0.00 | 0.00 | 44 | 1008.4 |
| 20260906212526 | 99 | 181 | 0.0 | 0.0 | 0.00 | 0.00 | 0.00 | 44 | 1008.3 |
| 20260906212021 | 98 | 78 | 0.0 | 0.0 | 0.00 | 0.00 | 0.00 | 46 | 1008.3 |
| 20260906211515 | 99 | 129 | 3.5 | 5.2 | 0.00 | 0.00 | 0.00 | 44 | 1008.5 |
| 20260906211011 | 99 | 142 | 2.6 | 2.6 | 0.00 | 0.00 | 0.00 | 44 | 1008.4 |
| 20260906210501 | 99 | 114 | 1.7 | 1.7 | 0.00 | 0.00 | 0.00 | 44 | 1008.4 |
| 20260906205959 | 99 | 106 | 0.0 | 0.9 | 0.00 | 0.00 | 0.00 | 44 | 1008.7 |
| 20260906205450 | 98 | 198 | 0.9 | 0.9 | 0.00 | 0.00 | 0.00 | 46 | 1008.6 |
| 20260906204947 | 98 | 156 | 1.7 | 4.3 | 0.00 | 0.00 | 0.00 | 47 | 1008.7 |
| 20260906204446 | 98 | 123 | 5.2 | 6.1 | 0.00 | 0.00 | 0.00 | 45 | 1008.8 |
| 20260906203944 | 98 | 169 | 0.9 | 2.6 | 0.00 | 0.00 | 0.00 | 46 | 1008.9 |
| 20260906203440 | 99 | 198 | 2.6 | 5.2 | 0.00 | 0.00 | 0.00 | 46 | 1008.9 |
| 20260906202938 | 99 | 47 | 0.0 | 0.0 | 0.00 | 0.00 | 0.00 | 47 | 1008.9 |
| 20260906202437 | 98 | 200 | 1.7 | 4.3 | 0.00 | 0.00 | 0.00 | 46 | 1009.1 |
| 20260906201932 | 97 | 197 | 0.9 | 1.7 | 0.00 | 0.00 | 0.00 | 47 | 1009.1 |
| 20260906201426 | 98 | 104 | 3.5 | 6.1 | 0.00 | 0.00 | 0.00 | 46 | 1009.1 |
| 20260906200921 | 97 | 131 | 1.7 | 4.3 | 0.00 | 0.00 | 0.00 | 48 | 1009.2 |
| 20260906200417 | 99 | 160 | 3.5 | 5.2 | 0.00 | 0.00 | 0.00 | 46 | 1009.3 |
| 20260906195912 | 100 | 135 | 2.6 | 2.6 | 0.00 | 0.00 | 0.00 | 46 | 1009.4 |
| 20260906195408 | 100 | 277 | 0.0 | 0.0 | 0.00 | 0.00 | 0.00 | 47 | 1009.2 |
| 20260906194904 | 99 | 189 | 0.9 | 1.7 | 0.00 | 0.00 | 0.00 | 48 | 1009.3 |
| 20260906194359 | 98 | 207 | 0.0 | 1.7 | 0.00 | 0.00 | 0.00 | 49 | 1009.4 |
| 20260906193854 | 98 | 5 | 1.7 | 1.7 | 0.00 | 0.00 | 0.00 | 47 | 1009.6 |
| 20260906193349 | 98 | 151 | 1.7 | 4.3 | 0.00 | 0.00 | 0.00 | 48 | 1009.6 |
| 20260906192844 | 98 | 159 | 3.5 | 4.3 | 0.00 | 0.00 | 0.00 | 48 | 1009.5 |
| 20260906192339 | 99 | 85 | 0.9 | 2.6 | 0.00 | 0.00 | 0.00 | 48 | 1009.7 |
| 20260906191839 | 98 | 285 | 0.0 | 0.0 | 0.00 | 0.00 | 0.00 | 48 | 1009.9 |
| 20260906191338 | 98 | 164 | 0.0 | 0.0 | 0.00 | 0.00 | 0.00 | 50 | 1009.7 |
| 20260906190833 | 96 | 228 | 1.7 | 2.6 | 0.00 | 0.00 | 0.00 | 50 | 1009.9 |
| 20260906190332 | 98 | 99 | 1.7 | 1.7 | 0.00 | 0.00 | 0.00 | 48 | 1010.0 |
| 20260906185827 | 98 | 184 | 0.9 | 0.9 | 0.00 | 0.00 | 0.00 | 51 | 1009.8 |
| 20260906185326 | 97 | 74 | 2.6 | 4.3 | 0.00 | 0.00 | 0.00 | 49 | 1009.8 |
| 20260906184821 | 97 | 134 | 1.7 | 2.6 | 0.00 | 0.00 | 0.00 | 49 | 1010.0 |
| 20260906184316 | 95 | 103 | 1.7 | 4.3 | 0.00 | 0.00 | 0.00 | 51 | 1010.0 |
| 20260906183811 | 95 | 137 | 4.3 | 5.2 | 0.00 | 0.00 | 0.00 | 51 | 1010.3 |
| 20260906183307 | 96 | 103 | 3.5 | 4.3 | 0.00 | 0.00 | 0.00 | 50 | 1010.3 |
| 20260906182807 | 96 | 145 | 2.6 | 5.2 | 0.00 | 0.00 | 0.00 | 50 | 1010.4 |
| 20260906182306 | 96 | 181 | 0.0 | 1.7 | 0.00 | 0.00 | 0.00 | 52 | 1010.5 |
| 20260906181758 | 96 | 201 | 0.9 | 2.6 | 0.00 | 0.00 | 0.00 | 53 | 1010.6 |
| 20260906181254 | 96 | 110 | 1.7 | 2.6 | 0.00 | 0.00 | 0.00 | 51 | 1010.6 |
| 20260906180754 | 96 | 151 | 0.0 | 0.9 | 0.00 | 0.00 | 0.00 | 51 | 1010.4 |
| 20260906180249 | 97 | 340 | 0.9 | 0.9 | 0.00 | 0.00 | 0.00 | 52 | 1010.5 |
| 20260906175747 | 96 | 198 | 0.0 | 0.0 | 0.00 | 0.00 | 0.00 | 51 | 1010.7 |
| 20260906175243 | 95 | 187 | 0.0 | 0.0 | 0.00 | 0.00 | 0.00 | 55 | 1010.7 |
| 20260906174741 | 95 | 102 | 0.9 | 2.6 | 0.00 | 0.00 | 0.00 | 52 | 1011.0 |
| 20260906174240 | 95 | 145 | 3.5 | 4.3 | 0.00 | 0.00 | 0.00 | 51 | 1011.0 |
| 20260906173736 | 95 | 104 | 2.6 | 4.3 | 0.00 | 0.00 | 0.00 | 52 | 1011.1 |
| 20260906173232 | 95 | 113 | 0.0 | 0.9 | 0.00 | 0.00 | 0.00 | 52 | 1011.1 |
| 20260906172730 | 95 | 348 | 0.0 | 0.0 | 0.00 | 0.00 | 0.00 | 54 | 1011.5 |
| 20260906172226 | 95 | 134 | 1.7 | 2.6 | 0.00 | 0.00 | 0.00 | 53 | 1011.5 |
| 20260906171726 | 94 | 113 | 0.9 | 1.7 | 0.00 | 0.00 | 0.00 | 54 | 1011.4 |
| 20260906171222 | 96 | 157 | 0.0 | 0.0 | 0.00 | 0.00 | 0.00 | 55 | 1011.4 |
| 20260906170718 | 95 | 134 | 1.7 | 2.6 | 0.00 | 0.00 | 0.00 | 55 | 1011.4 |
| 20260906170213 | 95 | 295 | 0.0 | 0.0 | 0.00 | 0.00 | 0.00 | 55 | 1011.7 |
| 20260906165709 | 95 | 34 | 2.6 | 5.2 | 0.00 | 0.00 | 0.00 | 54 | 1011.5 |
| 20260906165204 | 96 | 276 | 0.9 | 1.7 | 0.00 | 0.00 | 0.00 | 56 | 1011.6 |
| 20260906164703 | 95 | 204 | 0.9 | 0.9 | 0.00 | 0.00 | 0.00 | 57 | 1011.8 |
| 20260906164158 | 95 | 231 | 0.0 | 0.0 | 0.00 | 0.00 | 0.00 | 57 | 1011.9 |
| 20260906163654 | 95 | 193 | 0.0 | 0.0 | 0.00 | 0.00 | 0.00 | 58 | 1011.6 |
| 20260906163150 | 94 | 159 | 0.0 | 0.0 | 0.00 | 0.00 | 0.00 | 59 | 1011.7 |
| 20260906162647 | 94 | 126 | 1.7 | 5.2 | 0.00 | 0.00 | 0.00 | 58 | 1011.6 |
| 20260906162146 | 93 | 133 | 0.0 | 0.0 | 0.00 | 0.00 | 0.00 | 60 | 1011.5 |
| 20260906161641 | 93 | 119 | 0.9 | 0.9 | 0.00 | 0.00 | 0.00 | 61 | 1011.7 |
| 20260906161140 | 94 | 281 | 0.0 | 1.7 | 0.00 | 0.00 | 0.00 | 59 | 1011.6 |
| 20260906160639 | 93 | 209 | 0.0 | 0.9 | 0.00 | 0.00 | 0.00 | 62 | 1011.6 |
| 20260906160133 | 93 | 223 | 0.0 | 0.0 | 0.00 | 0.00 | 0.00 | 62 | 1011.6 |
| 20260906155630 | 93 | 146 | 0.9 | 0.9 | 0.00 | 0.00 | 0.00 | 61 | 1011.6 |
| 20260906155126 | 92 | 88 | 0.0 | 0.0 | 0.00 | 0.00 | 0.00 | 62 | 1011.9 |
| 20260906154621 | 92 | 140 | 3.5 | 5.2 | 0.00 | 0.00 | 0.00 | 62 | 1011.7 |
| 20260906154120 | 92 | 176 | 0.9 | 1.7 | 0.00 | 0.00 | 0.00 | 63 | 1011.8 |
| 20260906153620 | 92 | 113 | 0.0 | 1.7 | 0.00 | 0.00 | 0.00 | 65 | 1011.7 |
| 20260906153114 | 92 | 201 | 0.0 | 0.0 | 0.00 | 0.00 | 0.00 | 64 | 1011.6 |
| 20260906152609 | 91 | 42 | 0.0 | 0.0 | 0.00 | 0.00 | 0.00 | 67 | 1011.7 |
| 20260906152103 | 92 | 234 | 0.0 | 0.0 | 0.00 | 0.00 | 0.00 | 65 | 1011.4 |
| 20260906151558 | 91 | 154 | 0.0 | 0.0 | 0.00 | 0.00 | 0.00 | 68 | 1011.3 |
| 20260906151054 | 91 | 80 | 0.9 | 0.9 | 0.00 | 0.00 | 0.00 | 66 | 1011.4 |
| 20260906150549 | 90 | 157 | 0.0 | 0.9 | 0.00 | 0.00 | 0.00 | 68 | 1011.3 |
| 20260906150044 | 89 | 169 | 0.0 | 0.0 | 0.00 | 0.00 | 0.00 | 69 | 1011.2 |
| 20260906145543 | 89 | 77 | 1.7 | 1.7 | 0.00 | 0.00 | 0.00 | 69 | 1011.4 |
| 20260906145038 | 90 | 166 | 0.0 | 0.0 | 0.00 | 0.00 | 0.00 | 69 | 1011.4 |
| 20260906144532 | 89 | 194 | 0.0 | 0.0 | 0.00 | 0.00 | 0.00 | 71 | 1011.2 |
| 20260906144028 | 88 | 91 | 1.7 | 2.6 | 0.00 | 0.00 | 0.00 | 70 | 1011.2 |
| 20260906143523 | 87 | 140 | 0.0 | 0.0 | 0.00 | 0.00 | 0.00 | 71 | 1011.2 |
| 20260906143019 | 87 | 150 | 2.6 | 2.6 | 0.00 | 0.00 | 0.00 | 71 | 1011.2 |
| 20260906142513 | 88 | 96 | 1.7 | 1.7 | 0.00 | 0.00 | 0.00 | 71 | 1011.1 |
| 20260906142009 | 88 | 164 | 0.0 | 0.0 | 0.00 | 0.00 | 0.00 | 71 | 1011.3 |
| 20260906141508 | 87 | 62 | 0.0 | 0.0 | 0.00 | 0.00 | 0.00 | 72 | 1011.5 |
| 20260906141003 | 87 | 119 | 0.0 | 0.0 | 0.00 | 0.00 | 0.00 | 72 | 1011.3 |
| 20260906140457 | 87 | 204 | 0.0 | 0.0 | 0.00 | 0.00 | 0.00 | 73 | 1011.5 |
| 20260906135955 | 87 | 123 | 0.0 | 0.0 | 0.00 | 0.00 | 0.00 | 72 | 1011.5 |
| 20260906135454 | 87 | 80 | 0.0 | 0.0 | 0.00 | 0.00 | 0.00 | 72 | 1011.4 |
| 20260906134949 | 86 | 181 | 0.0 | 0.0 | 0.00 | 0.00 | 0.00 | 75 | 1011.6 |
| 20260906134445 | 86 | 146 | 0.0 | 0.0 | 0.00 | 0.00 | 0.00 | 75 | 1011.3 |
| 20260906133944 | 86 | 94 | 0.0 | 0.0 | 0.00 | 0.00 | 0.00 | 75 | 1011.4 |
| 20260906133440 | 85 | 163 | 0.0 | 0.0 | 0.00 | 0.00 | 0.00 | 76 | 1011.6 |
| 20260906132936 | 85 | 187 | 0.9 | 0.9 | 0.00 | 0.00 | 0.00 | 77 | 1011.5 |
| 20260906132431 | 85 | 134 | 0.0 | 0.0 | 0.00 | 0.00 | 0.00 | 77 | 1011.5 |
| 20260906131927 | 84 | 54 | 0.0 | 0.0 | 0.00 | 0.00 | 0.00 | 77 | 1011.4 |
| 20260906131422 | 84 | 147 | 0.0 | 0.0 | 0.00 | 0.00 | 0.00 | 77 | 1011.6 |
| 20260906130918 | 83 | 144 | 0.0 | 0.0 | 0.00 | 0.00 | 0.00 | 79 | 1011.4 |
| 20260906130417 | 83 | 140 | 0.0 | 0.0 | 0.00 | 0.00 | 0.00 | 79 | 1011.5 |
| 20260906125917 | 82 | 111 | 0.0 | 0.0 | 0.00 | 0.00 | 0.00 | 81 | 1011.3 |
| 20260906125414 | 81 | 170 | 0.0 | 0.0 | 0.00 | 0.00 | 0.00 | 82 | 1011.3 |
| 20260906124908 | 80 | 194 | 0.0 | 0.0 | 0.00 | 0.00 | 0.00 | 84 | 1011.3 |
| 20260906124404 | 80 | 200 | 0.0 | 0.0 | 0.00 | 0.00 | 0.00 | 84 | 1011.3 |
| 20260906123904 | 80 | 185 | 0.0 | 0.0 | 0.00 | 0.00 | 0.00 | 84 | 1011.1 |
| 20260906123358 | 80 | 197 | 0.0 | 0.0 | 0.00 | 0.00 | 0.00 | 84 | 1011.2 |
| 20260906122852 | 80 | 184 | 0.0 | 0.0 | 0.00 | 0.00 | 0.00 | 84 | 1011.2 |
| 20260906122347 | 79 | 186 | 0.0 | 0.0 | 0.00 | 0.00 | 0.00 | 84 | 1011.1 |
| 20260906121844 | 79 | 183 | 0.0 | 0.0 | 0.00 | 0.00 | 0.00 | 85 | 1010.8 |
| 20260906121339 | 79 | 189 | 0.0 | 0.0 | 0.00 | 0.00 | 0.00 | 85 | 1011.0 |
| 20260906120836 | 79 | 190 | 0.0 | 0.0 | 0.00 | 0.00 | 0.00 | 85 | 1010.6 |
| 20260906120332 | 79 | 188 | 0.0 | 0.0 | 0.00 | 0.00 | 0.00 | 85 | 1010.7 |
| 20260906115828 | 79 | 192 | 0.0 | 0.0 | 0.00 | 0.00 | 0.00 | 85 | 1010.7 |
| 20260906115322 | 79 | 191 | 0.0 | 0.0 | 0.00 | 0.00 | 0.00 | 85 | 1010.9 |
| 20260906114822 | 80 | 191 | 0.0 | 0.0 | 0.00 | 0.00 | 0.00 | 84 | 1010.9 |
| 20260906114317 | 79 | 200 | 0.0 | 0.0 | 0.00 | 0.00 | 0.00 | 84 | 1010.8 |
| 20260906113812 | 80 | 211 | 0.0 | 0.0 | 0.00 | 0.00 | 0.00 | 84 | 1010.8 |
| 20260906113311 | 80 | 221 | 0.0 | 0.0 | 0.00 | 0.00 | 0.00 | 84 | 1010.9 |
| 20260906112807 | 80 | 238 | 0.0 | 0.0 | 0.00 | 0.00 | 0.00 | 84 | 1010.5 |
| 20260906112306 | 80 | 251 | 0.0 | 0.0 | 0.00 | 0.00 | 0.00 | 84 | 1010.4 |
| 20260906111803 | 80 | 244 | 0.0 | 0.0 | 0.00 | 0.00 | 0.00 | 84 | 1010.4 |
| 20260906111302 | 80 | 224 | 0.0 | 0.0 | 0.00 | 0.00 | 0.00 | 83 | 1010.5 |
| 20260906110757 | 80 | 217 | 0.0 | 0.0 | 0.00 | 0.00 | 0.00 | 83 | 1010.3 |
| 20260906110253 | 80 | 211 | 0.0 | 0.0 | 0.00 | 0.00 | 0.00 | 84 | 1010.4 |
| 20260906105752 | 80 | 203 | 0.0 | 0.0 | 0.00 | 0.00 | 0.00 | 84 | 1010.5 |
| 20260906105248 | 79 | 208 | 0.0 | 0.0 | 0.00 | 0.00 | 0.00 | 85 | 1010.4 |
| 20260906104743 | 80 | 203 | 0.0 | 0.0 | 0.00 | 0.00 | 0.00 | 84 | 1010.3 |
| 20260906104242 | 80 | 203 | 0.0 | 0.0 | 0.00 | 0.00 | 0.00 | 84 | 1010.2 |
| 20260906103740 | 80 | 186 | 0.0 | 0.0 | 0.00 | 0.00 | 0.00 | 84 | 1010.4 |
| 20260906103234 | 79 | 193 | 0.0 | 0.0 | 0.00 | 0.00 | 0.00 | 84 | 1010.1 |
| 20260906102730 | 80 | 221 | 0.0 | 0.0 | 0.00 | 0.00 | 0.00 | 85 | 1010.3 |
| 20260906102229 | 80 | 221 | 0.0 | 0.0 | 0.00 | 0.00 | 0.00 | 83 | 1010.3 |
| 20260906101724 | 80 | 221 | 0.0 | 0.0 | 0.00 | 0.00 | 0.00 | 83 | 1010.3 |
| 20260906101219 | 80 | 221 | 0.0 | 0.0 | 0.00 | 0.00 | 0.00 | 83 | 1010.3 |
| 20260906100715 | 80 | 222 | 0.0 | 0.0 | 0.00 | 0.00 | 0.00 | 83 | 1010.3 |
| 20260906100214 | 80 | 222 | 0.0 | 0.0 | 0.00 | 0.00 | 0.00 | 83 | 1010.1 |
| 20260906095709 | 80 | 222 | 0.0 | 0.0 | 0.00 | 0.00 | 0.00 | 83 | 1010.1 |
| 20260906095205 | 80 | 224 | 0.0 | 0.0 | 0.00 | 0.00 | 0.00 | 83 | 1010.0 |
| 20260906094703 | 80 | 223 | 0.0 | 0.0 | 0.00 | 0.00 | 0.00 | 83 | 1010.0 |
| 20260906094159 | 80 | 227 | 0.0 | 0.0 | 0.00 | 0.00 | 0.00 | 82 | 1009.9 |
| 20260906093655 | 80 | 227 | 0.0 | 0.0 | 0.00 | 0.00 | 0.00 | 82 | 1009.7 |
| 20260906093150 | 80 | 263 | 0.0 | 0.0 | 0.00 | 0.00 | 0.00 | 82 | 1009.6 |
| 20260906092645 | 81 | 229 | 0.0 | 0.0 | 0.00 | 0.00 | 0.00 | 81 | 1009.6 |
| 20260906092144 | 81 | 228 | 0.0 | 0.0 | 0.00 | 0.00 | 0.00 | 81 | 1009.8 |
| 20260906091641 | 81 | 229 | 0.0 | 0.0 | 0.00 | 0.00 | 0.00 | 81 | 1009.9 |
| 20260906091137 | 81 | 206 | 0.0 | 0.0 | 0.00 | 0.00 | 0.00 | 80 | 1009.6 |
| 20260906090632 | 81 | 229 | 0.0 | 0.0 | 0.00 | 0.00 | 0.00 | 80 | 1009.7 |
| 20260906090126 | 82 | 221 | 0.0 | 0.0 | 0.00 | 0.00 | 0.00 | 80 | 1009.7 |
| 20260906085626 | 81 | 218 | 0.0 | 0.0 | 0.00 | 0.00 | 0.00 | 80 | 1009.6 |
| 20260906085120 | 81 | 125 | 0.0 | 0.0 | 0.00 | 0.00 | 0.00 | 81 | 1009.4 |
| 20260906084615 | 82 | 221 | 0.0 | 0.0 | 0.00 | 0.00 | 0.00 | 82 | 1009.7 |
| 20260906084114 | 82 | 236 | 0.0 | 0.0 | 0.00 | 0.00 | 0.00 | 80 | 1009.5 |
| 20260906083610 | 82 | 257 | 0.0 | 0.0 | 0.00 | 0.00 | 0.00 | 79 | 1009.6 |
| 20260906083109 | 82 | 203 | 0.0 | 0.0 | 0.00 | 0.00 | 0.00 | 79 | 1009.4 |
| 20260906082605 | 82 | 218 | 0.0 | 0.0 | 0.00 | 0.00 | 0.00 | 79 | 1009.6 |
| 20260906082100 | 82 | 319 | 0.0 | 0.0 | 0.00 | 0.00 | 0.00 | 79 | 1009.4 |
| 20260906081556 | 82 | 217 | 0.0 | 0.0 | 0.00 | 0.00 | 0.00 | 79 | 1009.5 |
| 20260906081051 | 82 | 225 | 0.0 | 0.0 | 0.00 | 0.00 | 0.00 | 79 | 1009.4 |
| 20260906080548 | 83 | 239 | 0.0 | 0.0 | 0.00 | 0.00 | 0.00 | 79 | 1009.6 |
| 20260906080044 | 82 | 219 | 0.0 | 0.0 | 0.00 | 0.00 | 0.00 | 80 | 1009.7 |
| 20260906075543 | 82 | 319 | 0.0 | 0.0 | 0.00 | 0.00 | 0.00 | 82 | 1009.6 |
| 20260906075038 | 82 | 212 | 0.0 | 0.0 | 0.00 | 0.00 | 0.00 | 81 | 1009.6 |
| 20260906074533 | 82 | 245 | 0.0 | 0.0 | 0.00 | 0.00 | 0.00 | 79 | 1009.7 |
| 20260906074031 | 83 | 224 | 0.0 | 0.0 | 0.00 | 0.00 | 0.00 | 79 | 1009.5 |
| 20260906073527 | 83 | 211 | 0.0 | 0.0 | 0.00 | 0.00 | 0.00 | 78 | 1009.6 |
| 20260906073023 | 83 | 222 | 0.0 | 0.0 | 0.00 | 0.00 | 0.00 | 77 | 1009.7 |
| 20260906072517 | 83 | 220 | 0.0 | 0.0 | 0.00 | 0.00 | 0.00 | 76 | 1009.8 |
| 20260906072014 | 83 | 251 | 0.0 | 0.0 | 0.00 | 0.00 | 0.00 | 76 | 1010.0 |
| 20260906071509 | 83 | 233 | 0.0 | 0.0 | 0.00 | 0.00 | 0.00 | 75 | 1010.0 |
| 20260906071004 | 83 | 316 | 0.0 | 0.0 | 0.00 | 0.00 | 0.00 | 76 | 1009.8 |
| 20260906070500 | 83 | 203 | 0.0 | 0.0 | 0.00 | 0.00 | 0.00 | 75 | 1010.0 |
| 20260906065955 | 83 | 246 | 0.0 | 0.0 | 0.00 | 0.00 | 0.00 | 76 | 1010.2 |
| 20260906065449 | 84 | 174 | 0.0 | 0.0 | 0.00 | 0.00 | 0.00 | 76 | 1009.9 |
| 20260906064945 | 84 | 238 | 0.0 | 0.0 | 0.00 | 0.00 | 0.00 | 75 | 1010.0 |
| 20260906064441 | 84 | 149 | 0.0 | 0.0 | 0.00 | 0.00 | 0.00 | 75 | 1009.9 |
| 20260906063936 | 84 | 238 | 0.0 | 0.0 | 0.00 | 0.00 | 0.00 | 73 | 1009.9 |
| 20260906063431 | 84 | 288 | 0.0 | 0.0 | 0.00 | 0.00 | 0.00 | 73 | 1009.8 |
| 20260906062926 | 84 | 238 | 0.0 | 0.0 | 0.00 | 0.00 | 0.00 | 72 | 1010.0 |
| 20260906062421 | 84 | 220 | 0.0 | 0.0 | 0.00 | 0.00 | 0.00 | 72 | 1010.0 |
| 20260906061916 | 84 | 202 | 0.0 | 0.0 | 0.00 | 0.00 | 0.00 | 72 | 1010.0 |
| 20260906061412 | 84 | 298 | 0.0 | 0.0 | 0.00 | 0.00 | 0.00 | 72 | 1009.6 |
| 20260906060906 | 84 | 231 | 0.0 | 0.0 | 0.00 | 0.00 | 0.00 | 73 | 1009.9 |
| 20260906060404 | 84 | 209 | 0.0 | 0.0 | 0.00 | 0.00 | 0.00 | 74 | 1010.0 |
| 20260906055900 | 84 | 193 | 0.0 | 0.0 | 0.00 | 0.00 | 0.00 | 75 | 1009.9 |
| 20260906055355 | 84 | 225 | 0.0 | 0.0 | 0.00 | 0.00 | 0.00 | 77 | 1010.0 |
| 20260906054850 | 85 | 224 | 0.0 | 0.0 | 0.00 | 0.00 | 0.00 | 74 | 1009.9 |
| 20260906054345 | 85 | 0 | 0.0 | 0.0 | 0.00 | 0.00 | 0.00 | 72 | 1010.0 |
| 20260906053842 | 85 | 183 | 0.0 | 0.0 | 0.00 | 0.00 | 0.00 | 70 | 1009.9 |
| 20260906053337 | 85 | 222 | 0.0 | 0.0 | 0.00 | 0.00 | 0.00 | 72 | 1009.9 |
| 20260906052832 | 85 | 187 | 0.0 | 0.0 | 0.00 | 0.00 | 0.00 | 70 | 1010.0 |
| 20260906052329 | 86 | 237 | 0.0 | 0.0 | 0.00 | 0.00 | 0.00 | 69 | 1009.8 |
| 20260906051825 | 86 | 244 | 0.0 | 0.0 | 0.00 | 0.00 | 0.00 | 69 | 1010.0 |
| 20260906051325 | 86 | 237 | 0.0 | 0.0 | 0.00 | 0.00 | 0.00 | 68 | 1010.1 |
| 20260906050821 | 86 | 200 | 0.0 | 0.0 | 0.00 | 0.00 | 0.00 | 68 | 1010.2 |
| 20260906050316 | 86 | 191 | 0.0 | 0.0 | 0.00 | 0.00 | 0.00 | 68 | 1010.1 |
| 20260906045814 | 86 | 235 | 0.0 | 0.0 | 0.00 | 0.00 | 0.00 | 67 | 1010.1 |
| 20260906045309 | 86 | 255 | 0.0 | 0.0 | 0.00 | 0.00 | 0.00 | 67 | 1010.0 |
| 20260906044805 | 86 | 243 | 0.0 | 0.0 | 0.00 | 0.00 | 0.00 | 67 | 1009.9 |
| 20260906044300 | 87 | 245 | 0.0 | 0.0 | 0.00 | 0.00 | 0.00 | 66 | 1010.0 |
| 20260906043756 | 87 | 176 | 0.0 | 0.0 | 0.00 | 0.00 | 0.00 | 66 | 1009.9 |
| 20260906043252 | 87 | 345 | 0.0 | 0.0 | 0.00 | 0.00 | 0.00 | 66 | 1009.9 |
| 20260906042751 | 87 | 245 | 0.0 | 0.0 | 0.00 | 0.00 | 0.00 | 66 | 1009.9 |
| 20260906042250 | 87 | 242 | 0.0 | 0.0 | 0.00 | 0.00 | 0.00 | 66 | 1010.0 |
| 20260906041746 | 87 | 251 | 0.0 | 0.0 | 0.00 | 0.00 | 0.00 | 65 | 1009.6 |
| 20260906041241 | 87 | 210 | 0.0 | 0.0 | 0.00 | 0.00 | 0.00 | 65 | 1009.8 |
| 20260906040736 | 87 | 309 | 0.0 | 0.0 | 0.00 | 0.00 | 0.00 | 65 | 1009.9 |
| 20260906040231 | 87 | 258 | 0.0 | 0.0 | 0.00 | 0.00 | 0.00 | 64 | 1009.8 |
| 20260906035727 | 87 | 261 | 0.0 | 0.0 | 0.00 | 0.00 | 0.00 | 64 | 1010.0 |
| 20260906035223 | 87 | 250 | 0.0 | 0.0 | 0.00 | 0.00 | 0.00 | 64 | 1010.1 |
| 20260906034722 | 88 | 130 | 0.0 | 0.0 | 0.00 | 0.00 | 0.00 | 64 | 1009.8 |
| 20260906034217 | 88 | 217 | 0.0 | 0.0 | 0.00 | 0.00 | 0.00 | 63 | 1010.1 |
| 20260906033713 | 88 | 8 | 0.0 | 0.0 | 0.00 | 0.00 | 0.00 | 63 | 1009.8 |
| 20260906033213 | 88 | 246 | 0.0 | 0.0 | 0.00 | 0.00 | 0.00 | 62 | 1009.8 |
| 20260906032710 | 88 | 269 | 0.0 | 0.9 | 0.00 | 0.00 | 0.00 | 62 | 1009.8 |
| 20260906032209 | 89 | 198 | 0.0 | 0.0 | 0.00 | 0.00 | 0.00 | 62 | 1009.8 |
| 20260906031705 | 89 | 232 | 0.0 | 0.0 | 0.00 | 0.00 | 0.00 | 61 | 1009.9 |
| 20260906031200 | 89 | 274 | 0.0 | 0.0 | 0.00 | 0.00 | 0.00 | 61 | 1009.9 |
| 20260906030659 | 89 | 272 | 1.7 | 1.7 | 0.00 | 0.00 | 0.00 | 61 | 1010.0 |
| 20260906030155 | 89 | 213 | 0.0 | 0.0 | 0.00 | 0.00 | 0.00 | 61 | 1010.0 |
| 20260906025653 | 89 | 232 | 0.0 | 0.0 | 0.00 | 0.00 | 0.00 | 61 | 1010.0 |
| 20260906025148 | 89 | 182 | 0.0 | 0.0 | 0.00 | 0.00 | 0.00 | 61 | 1010.0 |
| 20260906024642 | 89 | 131 | 0.0 | 0.9 | 0.00 | 0.00 | 0.00 | 61 | 1009.9 |
| 20260906024136 | 89 | 271 | 0.0 | 0.0 | 0.00 | 0.00 | 0.00 | 61 | 1009.9 |
| 20260906023633 | 89 | 8 | 0.0 | 0.0 | 0.00 | 0.00 | 0.00 | 60 | 1009.5 |
| 20260906023132 | 89 | 197 | 0.0 | 0.0 | 0.00 | 0.00 | 0.00 | 60 | 1009.6 |
| 20260906022627 | 89 | 151 | 0.0 | 0.0 | 0.00 | 0.00 | 0.00 | 60 | 1009.6 |
| 20260906022123 | 90 | 253 | 0.0 | 0.9 | 0.00 | 0.00 | 0.00 | 59 | 1009.4 |
| 20260906021619 | 90 | 233 | 1.7 | 2.6 | 0.00 | 0.00 | 0.00 | 59 | 1009.3 |
| 20260906021118 | 90 | 282 | 0.0 | 0.0 | 0.00 | 0.00 | 0.00 | 59 | 1009.3 |
| 20260906020617 | 90 | 215 | 0.0 | 0.0 | 0.00 | 0.00 | 0.00 | 59 | 1009.1 |
| 20260906020112 | 90 | 241 | 0.9 | 0.9 | 0.00 | 0.00 | 0.00 | 59 | 1009.2 |
| 20260906015606 | 91 | 254 | 0.0 | 0.9 | 0.00 | 0.00 | 0.00 | 58 | 1009.1 |
| 20260906015105 | 91 | 122 | 0.0 | 0.0 | 0.00 | 0.00 | 0.00 | 57 | 1009.0 |
| 20260906014600 | 91 | 120 | 0.0 | 0.0 | 0.00 | 0.00 | 0.00 | 56 | 1009.0 |
| 20260906014056 | 92 | 201 | 0.9 | 1.7 | 0.00 | 0.00 | 0.00 | 55 | 1008.9 |
| 20260906013551 | 93 | 229 | 4.3 | 7.8 | 0.00 | 0.00 | 0.00 | 55 | 1008.7 |
| 20260906013047 | 93 | 114 | 0.9 | 1.7 | 0.00 | 0.00 | 0.00 | 54 | 1008.4 |
| 20260906012542 | 94 | 220 | 1.7 | 4.3 | 0.00 | 0.00 | 0.00 | 53 | 1008.4 |
| 20260906012041 | 95 | 225 | 0.9 | 1.7 | 0.00 | 0.00 | 0.00 | 51 | 1008.2 |
| 20260906011538 | 95 | 110 | 0.9 | 1.7 | 0.00 | 0.00 | 0.00 | 47 | 1008.1 |
| 20260906011037 | 95 | 178 | 0.9 | 1.7 | 0.00 | 0.00 | 0.00 | 47 | 1008.2 |
| 20260906010533 | 95 | 144 | 0.9 | 1.7 | 0.00 | 0.00 | 0.00 | 47 | 1008.0 |
| 20260906010029 | 96 | 156 | 0.9 | 1.7 | 0.00 | 0.00 | 0.00 | 47 | 1008.0 |
| 20260906005528 | 96 | 87 | 0.9 | 1.7 | 0.00 | 0.00 | 0.00 | 46 | 1007.9 |
| 20260906005027 | 96 | 143 | 0.0 | 0.9 | 0.00 | 0.00 | 0.00 | 46 | 1008.1 |
| 20260906004526 | 96 | 112 | 3.5 | 6.1 | 0.00 | 0.00 | 0.00 | 45 | 1007.9 |
| 20260906004022 | 96 | 141 | 0.0 | 1.7 | 0.00 | 0.00 | 0.00 | 45 | 1007.9 |
| 20260906003516 | 97 | 238 | 0.9 | 0.9 | 0.00 | 0.00 | 0.00 | 44 | 1008.1 |
| 20260906003012 | 97 | 139 | 0.9 | 1.7 | 0.00 | 0.00 | 0.00 | 44 | 1007.7 |
| 20260906002507 | 97 | 121 | 0.9 | 1.7 | 0.00 | 0.00 | 0.00 | 44 | 1007.9 |
| 20260906002002 | 97 | 161 | 0.9 | 0.9 | 0.00 | 0.00 | 0.00 | 44 | 1007.9 |
| 20260906001458 | 97 | 175 | 0.9 | 0.9 | 0.00 | 0.00 | 0.00 | 45 | 1008.0 |
| 20260906000952 | 97 | 135 | 0.0 | 0.0 | 0.00 | 0.00 | 0.00 | 44 | 1008.0 |
| 20260906000448 | 98 | 124 | 0.0 | 0.0 | 0.00 | 0.00 | 0.00 | 44 | 1008.0 |
| 20260905235948 | 98 | 78 | 3.5 | 4.3 | 0.00 | 0.00 | 0.00 | 43 | 1008.1 |
| 20260905235442 | 98 | 178 | 0.0 | 0.0 | 0.00 | 0.00 | 0.00 | 43 | 1007.8 |
| 20260905234937 | 98 | 179 | 0.0 | 0.0 | 0.00 | 0.00 | 0.00 | 44 | 1007.7 |
| 20260905234432 | 98 | 191 | 0.0 | 0.0 | 0.00 | 0.00 | 0.00 | 45 | 1007.8 |
| 20260905233927 | 98 | 158 | 0.0 | 0.0 | 0.00 | 0.00 | 0.00 | 44 | 1007.7 |
| 20260905233422 | 99 | 89 | 0.9 | 0.9 | 0.00 | 0.00 | 0.00 | 42 | 1007.4 |
| 20260905232921 | 98 | 62 | 0.0 | 0.0 | 0.00 | 0.00 | 0.00 | 43 | 1007.7 |
| 20260905232418 | 99 | 115 | 0.0 | 0.9 | 0.00 | 0.00 | 0.00 | 43 | 1007.8 |
| 20260905231912 | 99 | 37 | 2.6 | 4.3 | 0.00 | 0.00 | 0.00 | 42 | 1007.7 |
| 20260905231408 | 99 | 53 | 1.7 | 2.6 | 0.00 | 0.00 | 0.00 | 42 | 1007.5 |
| 20260905230905 | 99 | 43 | 0.0 | 0.9 | 0.00 | 0.00 | 0.00 | 43 | 1007.9 |
| 20260905230403 | 99 | 61 | 0.9 | 1.7 | 0.00 | 0.00 | 0.00 | 43 | 1007.7 |
| 20260905225901 | 99 | 44 | 0.9 | 2.6 | 0.00 | 0.00 | 0.00 | 43 | 1007.8 |
| 20260905225356 | 99 | 161 | 2.6 | 4.3 | 0.00 | 0.00 | 0.00 | 43 | 1007.5 |
| 20260905224851 | 100 | 258 | 0.0 | 0.0 | 0.00 | 0.00 | 0.00 | 42 | 1007.8 |
| 20260905224341 | 100 | 268 | 0.0 | 0.9 | 0.00 | 0.00 | 0.00 | 42 | 1007.8 |